createdAt,value
2017-05-21T00:00:30.703Z,1025.8
2017-05-21T00:01:32.917Z,1025.8
2017-05-21T00:02:35.768Z,1025.8
2017-05-21T00:03:38.620Z,1025.8
2017-05-21T00:04:41.469Z,1025.7
2017-05-21T00:05:44.571Z,1025.7
2017-05-21T00:06:46.917Z,1025.7
2017-05-21T00:07:49.769Z,1025.8
2017-05-21T00:08:52.624Z,1025.7
2017-05-21T00:09:54.967Z,1025.8
2017-05-21T00:10:57.991Z,1025.8
2017-05-21T00:12:00.837Z,1025.7
2017-05-21T00:13:03.554Z,1025.8
2017-05-21T00:14:06.269Z,1025.8
2017-05-21T00:15:08.852Z,1025.7
2017-05-21T00:16:11.954Z,1025.8
2017-05-21T00:17:14.308Z,1025.7
2017-05-21T00:18:17.084Z,1025.9
2017-05-21T00:19:19.936Z,1025.8
2017-05-21T00:20:22.787Z,1025.8
2017-05-21T00:21:25.886Z,1025.8
2017-05-21T00:22:28.235Z,1025.8
2017-05-21T00:23:31.321Z,1025.8
2017-05-21T00:24:34.052Z,1025.8
2017-05-21T00:25:36.763Z,1025.8
2017-05-21T00:26:39.728Z,1025.8
2017-05-21T00:27:42.074Z,1025.9
2017-05-21T00:28:44.803Z,1025.9
2017-05-21T00:29:47.664Z,1025.9
2017-05-21T00:30:50.564Z,1025.8
2017-05-21T00:31:53.717Z,1025.8
2017-05-21T00:32:56.064Z,1025.8
2017-05-21T00:33:58.914Z,1025.8
2017-05-21T00:35:01.265Z,1025.9
2017-05-21T00:36:04.484Z,1025.9
2017-05-21T00:37:07.453Z,1025.9
2017-05-21T00:38:09.907Z,1025.9
2017-05-21T00:39:12.625Z,1025.9
2017-05-21T00:40:15.406Z,1025.9
2017-05-21T00:41:18.117Z,1025.9
2017-05-21T00:42:21.224Z,1025.9
2017-05-21T00:43:23.570Z,1025.9
2017-05-21T00:45:28.835Z,1025.9
2017-05-21T00:46:31.683Z,1025.9
2017-05-21T00:47:34.834Z,1025.8
2017-05-21T00:48:37.329Z,1025.9
2017-05-21T00:49:40.115Z,1025.9
2017-05-21T00:50:42.899Z,1025.8
2017-05-21T00:51:45.658Z,1025.8
2017-05-21T00:52:48.499Z,1025.9
2017-05-21T00:53:50.851Z,1025.8
2017-05-21T00:54:53.624Z,1025.9
2017-05-21T00:55:56.470Z,1025.8
2017-05-21T00:56:59.327Z,1025.9
2017-05-21T00:58:02.434Z,1025.8
2017-05-21T00:59:04.780Z,1025.8
2017-05-21T01:00:07.667Z,1025.9
2017-05-21T01:01:10.378Z,1025.8
2017-05-21T01:02:13.225Z,1025.8
2017-05-21T01:03:16.196Z,1025.8
2017-05-21T01:04:18.539Z,1025.9
2017-05-21T01:05:21.397Z,1025.9
2017-05-21T01:06:24.244Z,1025.8
2017-05-21T01:07:26.959Z,1025.9
2017-05-21T01:08:30.064Z,1025.9
2017-05-21T01:09:32.410Z,1025.9
2017-05-21T01:10:34.995Z,1025.9
2017-05-21T01:12:40.622Z,1025.9
2017-05-21T01:13:43.733Z,1025.9
2017-05-21T01:14:46.087Z,1025.9
2017-05-21T01:15:48.801Z,1025.9
2017-05-21T01:16:51.649Z,1025.9
2017-05-21T01:17:54.495Z,1025.9
2017-05-21T01:18:57.101Z,1025.9
2017-05-21T01:19:59.963Z,1025.9
2017-05-21T01:21:02.820Z,1025.9
2017-05-21T01:22:05.164Z,1025.9
2017-05-21T01:23:07.884Z,1025.9
2017-05-21T01:24:10.899Z,1025.9
2017-05-21T01:25:13.622Z,1025.9
2017-05-21T01:26:16.466Z,1025.9
2017-05-21T01:27:18.866Z,1025.9
2017-05-21T01:28:21.581Z,1026
2017-05-21T01:29:24.916Z,1026
2017-05-21T01:30:27.500Z,1025.9
2017-05-21T01:31:30.214Z,1025.9
2017-05-21T01:32:32.935Z,1026
2017-05-21T01:33:35.649Z,1026
2017-05-21T01:34:38.398Z,1026
2017-05-21T01:35:41.124Z,1026
2017-05-21T01:36:43.840Z,1026
2017-05-21T01:37:46.688Z,1026
2017-05-21T01:38:49.541Z,1025.9
2017-05-21T01:39:52.140Z,1026
2017-05-21T01:40:54.997Z,1026
2017-05-21T01:41:57.349Z,1026
2017-05-21T01:43:00.196Z,1026
2017-05-21T01:44:03.045Z,1026
2017-05-21T01:45:06.198Z,1026
2017-05-21T01:46:08.411Z,1026
2017-05-21T01:47:11.494Z,1026
2017-05-21T01:48:13.844Z,1026
2017-05-21T01:49:16.709Z,1026
2017-05-21T01:50:19.808Z,1026
2017-05-21T01:51:22.164Z,1026
2017-05-21T01:52:25.014Z,1026
2017-05-21T01:53:27.729Z,1026
2017-05-21T01:54:30.580Z,1026
2017-05-21T01:55:33.255Z,1026
2017-05-21T01:56:35.972Z,1026
2017-05-21T01:57:38.824Z,1026
2017-05-21T01:58:41.542Z,1026
2017-05-21T01:59:44.397Z,1026
2017-05-21T02:00:47.044Z,1026
2017-05-21T02:02:52.308Z,1026.1
2017-05-21T02:03:55.393Z,1026.1
2017-05-21T02:04:57.789Z,1026
2017-05-21T02:06:00.901Z,1026.1
2017-05-21T02:07:03.249Z,1026
2017-05-21T02:08:06.017Z,1026.1
2017-05-21T02:09:08.736Z,1026.1
2017-05-21T02:10:11.582Z,1026.1
2017-05-21T02:11:14.416Z,1026.1
2017-05-21T02:12:17.270Z,1026.1
2017-05-21T02:13:20.117Z,1026.1
2017-05-21T02:14:22.463Z,1026.1
2017-05-21T02:15:25.312Z,1026.2
2017-05-21T02:16:28.284Z,1026.1
2017-05-21T02:17:31.002Z,1026.2
2017-05-21T02:18:33.715Z,1026.1
2017-05-21T02:19:36.299Z,1026.1
2017-05-21T02:20:39.147Z,1026.2
2017-05-21T02:21:42.296Z,1026.1
2017-05-21T02:22:44.645Z,1026.2
2017-05-21T02:24:49.904Z,1026.1
2017-05-21T02:25:52.755Z,1026.1
2017-05-21T02:26:55.905Z,1026.2
2017-05-21T02:27:58.254Z,1026.2
2017-05-21T02:29:01.109Z,1026.1
2017-05-21T02:30:03.823Z,1026.1
2017-05-21T02:31:06.404Z,1026.1
2017-05-21T02:32:09.554Z,1026.1
2017-05-21T02:33:11.765Z,1026.1
2017-05-21T02:34:14.620Z,1026.1
2017-05-21T02:35:17.472Z,1026.1
2017-05-21T02:36:20.322Z,1026.1
2017-05-21T02:37:23.290Z,1026.1
2017-05-21T02:38:25.691Z,1026.1
2017-05-21T02:39:28.539Z,1026.1
2017-05-21T02:40:31.255Z,1026.1
2017-05-21T02:41:33.596Z,1026.2
2017-05-21T02:42:36.929Z,1026.2
2017-05-21T02:43:39.276Z,1026.2
2017-05-21T02:44:41.990Z,1026.2
2017-05-21T02:45:44.699Z,1026.2
2017-05-21T02:46:47.552Z,1026.2
2017-05-21T02:47:50.654Z,1026.2
2017-05-21T02:48:53.009Z,1026.2
2017-05-21T02:49:55.854Z,1026.2
2017-05-21T02:50:58.200Z,1026.2
2017-05-21T02:52:00.853Z,1026.2
2017-05-21T02:53:04.011Z,1026.2
2017-05-21T02:54:06.363Z,1026.2
2017-05-21T02:55:09.074Z,1026.2
2017-05-21T02:56:11.805Z,1026.2
2017-05-21T02:57:14.649Z,1026.3
2017-05-21T02:58:17.748Z,1026.2
2017-05-21T02:59:20.097Z,1026.3
2017-05-21T03:00:22.952Z,1026.3
2017-05-21T03:01:25.796Z,1026.3
2017-05-21T03:02:28.506Z,1026.2
2017-05-21T03:03:31.471Z,1026.3
2017-05-21T03:04:33.814Z,1026.2
2017-05-21T03:05:36.393Z,1026.3
2017-05-21T03:06:39.242Z,1026.2
2017-05-21T03:07:41.821Z,1026.2
2017-05-21T03:08:44.933Z,1026.2
2017-05-21T03:09:47.277Z,1026.3
2017-05-21T03:10:49.984Z,1026.3
2017-05-21T03:11:52.832Z,1026.3
2017-05-21T03:12:55.543Z,1026.3
2017-05-21T03:13:58.692Z,1026.3
2017-05-21T03:15:01.036Z,1026.3
2017-05-21T03:16:03.881Z,1026.4
2017-05-21T03:17:06.763Z,1026.3
2017-05-21T03:18:09.536Z,1026.4
2017-05-21T03:19:12.180Z,1026.4
2017-05-21T03:20:14.527Z,1026.4
2017-05-21T03:21:17.292Z,1026.4
2017-05-21T03:22:20.411Z,1026.4
2017-05-21T03:23:23.119Z,1026.4
2017-05-21T03:24:25.772Z,1026.4
2017-05-21T03:25:28.481Z,1026.4
2017-05-21T03:26:31.065Z,1026.4
2017-05-21T03:27:33.913Z,1026.4
2017-05-21T03:28:36.625Z,1026.3
2017-05-21T03:29:39.583Z,1026.4
2017-05-21T03:30:42.159Z,1026.4
2017-05-21T03:31:44.508Z,1026.4
2017-05-21T03:32:47.359Z,1026.5
2017-05-21T03:33:50.207Z,1026.4
2017-05-21T03:34:53.264Z,1026.4
2017-05-21T03:35:55.607Z,1026.5
2017-05-21T03:36:58.458Z,1026.4
2017-05-21T03:38:01.301Z,1026.5
2017-05-21T03:39:03.646Z,1026.4
2017-05-21T03:40:06.745Z,1026.5
2017-05-21T03:41:09.091Z,1026.5
2017-05-21T03:42:11.941Z,1026.5
2017-05-21T03:43:14.847Z,1026.5
2017-05-21T03:44:17.560Z,1026.5
2017-05-21T03:45:20.394Z,1026.6
2017-05-21T03:46:22.735Z,1026.6
2017-05-21T03:47:25.449Z,1026.5
2017-05-21T03:48:28.530Z,1026.5
2017-05-21T03:49:31.246Z,1026.5
2017-05-21T03:50:33.811Z,1026.5
2017-05-21T03:51:36.654Z,1026.5
2017-05-21T03:53:41.773Z,1026.5
2017-05-21T03:54:44.629Z,1026.6
2017-05-21T03:55:47.729Z,1026.5
2017-05-21T03:56:50.073Z,1026.5
2017-05-21T03:57:52.922Z,1026.5
2017-05-21T03:58:55.772Z,1026.6
2017-05-21T03:59:58.173Z,1026.6
2017-05-21T04:01:01.380Z,1026.6
2017-05-21T04:02:03.725Z,1026.6
2017-05-21T04:03:06.570Z,1026.5
2017-05-21T04:04:09.416Z,1026.5
2017-05-21T04:05:11.995Z,1026.6
2017-05-21T04:06:15.094Z,1026.6
2017-05-21T04:07:17.440Z,1026.6
2017-05-21T04:08:20.148Z,1026.6
2017-05-21T04:09:22.999Z,1026.6
2017-05-21T04:10:25.851Z,1026.6
2017-05-21T04:11:28.820Z,1026.6
2017-05-21T04:12:31.156Z,1026.6
2017-05-21T04:13:34.003Z,1026.6
2017-05-21T04:14:36.718Z,1026.6
2017-05-21T04:15:39.067Z,1026.6
2017-05-21T04:16:42.536Z,1026.7
2017-05-21T04:17:44.878Z,1026.7
2017-05-21T04:18:47.726Z,1026.6
2017-05-21T04:19:50.438Z,1026.7
2017-05-21T04:20:53.150Z,1026.7
2017-05-21T04:21:55.802Z,1026.7
2017-05-21T04:22:58.664Z,1026.7
2017-05-21T04:24:01.009Z,1026.7
2017-05-21T04:25:03.863Z,1026.8
2017-05-21T04:26:06.714Z,1026.7
2017-05-21T04:27:09.811Z,1026.7
2017-05-21T04:28:12.023Z,1026.7
2017-05-21T04:29:14.877Z,1026.7
2017-05-21T04:30:17.593Z,1026.7
2017-05-21T04:31:20.306Z,1026.8
2017-05-21T04:32:23.467Z,1026.7
2017-05-21T04:33:25.808Z,1026.8
2017-05-21T04:34:28.521Z,1026.8
2017-05-21T04:35:31.230Z,1026.7
2017-05-21T04:36:34.080Z,1026.8
2017-05-21T04:37:37.226Z,1026.8
2017-05-21T04:38:39.566Z,1026.7
2017-05-21T04:39:42.277Z,1026.8
2017-05-21T04:40:45.127Z,1026.8
2017-05-21T04:41:47.971Z,1026.8
2017-05-21T04:42:50.933Z,1026.8
2017-05-21T04:43:53.777Z,1026.8
2017-05-21T04:44:56.187Z,1026.9
2017-05-21T04:45:59.038Z,1026.8
2017-05-21T04:47:01.882Z,1026.9
2017-05-21T04:48:05.034Z,1026.9
2017-05-21T04:49:07.480Z,1026.9
2017-05-21T04:50:10.330Z,1026.9
2017-05-21T04:51:12.904Z,1026.8
2017-05-21T04:52:15.739Z,1026.9
2017-05-21T04:53:18.897Z,1026.9
2017-05-21T04:54:21.112Z,1026.9
2017-05-21T04:55:24.197Z,1026.9
2017-05-21T04:56:26.968Z,1026.9
2017-05-21T04:57:29.682Z,1026.9
2017-05-21T04:58:32.703Z,1026.9
2017-05-21T04:59:34.910Z,1026.9
2017-05-21T05:00:37.626Z,1026.9
2017-05-21T05:01:40.846Z,1026.9
2017-05-21T05:02:43.559Z,1027
2017-05-21T05:03:46.565Z,1026.9
2017-05-21T05:04:48.772Z,1027
2017-05-21T05:05:51.857Z,1027
2017-05-21T05:06:54.704Z,1027
2017-05-21T05:07:57.552Z,1027
2017-05-21T05:09:00.147Z,1027
2017-05-21T05:10:03.004Z,1027
2017-05-21T05:11:05.851Z,1027.1
2017-05-21T05:12:08.561Z,1027.1
2017-05-21T05:13:11.409Z,1027.1
2017-05-21T05:14:14.421Z,1027.1
2017-05-21T05:15:16.764Z,1027.1
2017-05-21T05:16:19.619Z,1027.1
2017-05-21T05:17:22.465Z,1027.1
2017-05-21T05:18:25.041Z,1027.2
2017-05-21T05:19:28.051Z,1027.1
2017-05-21T05:20:30.768Z,1027.1
2017-05-21T05:21:33.685Z,1027.1
2017-05-21T05:22:36.538Z,1027.1
2017-05-21T05:23:39.251Z,1027.1
2017-05-21T05:24:42.267Z,1027.1
2017-05-21T05:25:44.619Z,1027.1
2017-05-21T05:26:47.327Z,1027.1
2017-05-21T05:27:50.546Z,1027.1
2017-05-21T05:28:53.251Z,1027.1
2017-05-21T05:29:56.398Z,1027.1
2017-05-21T05:30:58.751Z,1027.1
2017-05-21T05:32:01.626Z,1027.1
2017-05-21T05:33:04.474Z,1027
2017-05-21T05:34:07.323Z,1027.1
2017-05-21T05:35:10.470Z,1027.1
2017-05-21T05:36:12.813Z,1027.1
2017-05-21T05:37:15.655Z,1027.1
2017-05-21T05:38:18.499Z,1027.1
2017-05-21T05:39:21.225Z,1027.1
2017-05-21T05:40:24.370Z,1027.1
2017-05-21T05:41:26.577Z,1027.1
2017-05-21T05:42:29.428Z,1027.1
2017-05-21T05:43:32.277Z,1027.1
2017-05-21T05:44:35.128Z,1027.1
2017-05-21T05:45:38.280Z,1027.1
2017-05-21T05:46:40.998Z,1027.1
2017-05-21T05:47:43.766Z,1027.1
2017-05-21T05:48:46.616Z,1027.1
2017-05-21T05:49:49.332Z,1027.1
2017-05-21T05:50:52.432Z,1027.2
2017-05-21T05:51:54.828Z,1027.2
2017-05-21T05:52:57.676Z,1027.2
2017-05-21T05:54:00.527Z,1027.2
2017-05-21T05:55:03.374Z,1027.2
2017-05-21T05:56:06.469Z,1027.1
2017-05-21T05:57:08.812Z,1027.2
2017-05-21T05:58:11.657Z,1027.2
2017-05-21T05:59:14.753Z,1027.2
2017-05-21T06:00:17.663Z,1027.2
2017-05-21T06:01:20.676Z,1027.2
2017-05-21T06:02:23.015Z,1027.2
2017-05-21T06:03:25.861Z,1027.2
2017-05-21T06:04:28.948Z,1027.2
2017-05-21T06:05:31.658Z,1027.2
2017-05-21T06:06:34.750Z,1027.2
2017-05-21T06:07:37.091Z,1027.2
2017-05-21T06:08:40.309Z,1027.2
2017-05-21T06:09:43.024Z,1027.2
2017-05-21T06:10:45.879Z,1027.2
2017-05-21T06:11:48.982Z,1027.2
2017-05-21T06:12:51.558Z,1027.3
2017-05-21T06:13:54.400Z,1027.3
2017-05-21T06:14:57.244Z,1027.3
2017-05-21T06:16:00.092Z,1027.3
2017-05-21T06:18:06.110Z,1027.3
2017-05-21T06:19:08.321Z,1027.3
2017-05-21T06:20:11.175Z,1027.3
2017-05-21T06:22:16.934Z,1027.3
2017-05-21T06:23:20.080Z,1027.3
2017-05-21T06:24:22.794Z,1027.3
2017-05-21T06:25:25.643Z,1027.3
2017-05-21T06:26:28.589Z,1027.3
2017-05-21T06:27:31.167Z,1027.3
2017-05-21T06:28:34.316Z,1027.4
2017-05-21T06:29:37.164Z,1027.4
2017-05-21T06:30:40.017Z,1027.4
2017-05-21T06:31:42.865Z,1027.4
2017-05-21T06:32:45.644Z,1027.4
2017-05-21T06:33:48.521Z,1027.4
2017-05-21T06:34:51.368Z,1027.4
2017-05-21T06:35:54.215Z,1027.4
2017-05-21T06:36:56.620Z,1027.4
2017-05-21T06:37:59.465Z,1027.4
2017-05-21T06:39:02.628Z,1027.4
2017-05-21T06:40:05.475Z,1027.4
2017-05-21T06:41:08.323Z,1027.5
2017-05-21T06:42:11.171Z,1027.4
2017-05-21T06:43:13.881Z,1027.4
2017-05-21T06:44:16.958Z,1027.5
2017-05-21T06:45:19.808Z,1027.5
2017-05-21T06:47:25.570Z,1027.5
2017-05-21T06:48:28.146Z,1027.5
2017-05-21T06:49:31.245Z,1027.5
2017-05-21T06:50:33.957Z,1027.5
2017-05-21T06:51:36.800Z,1027.5
2017-05-21T06:52:39.514Z,1027.5
2017-05-21T06:53:42.233Z,1027.6
2017-05-21T06:54:45.333Z,1027.5
2017-05-21T06:55:48.052Z,1027.5
2017-05-21T06:56:50.766Z,1027.5
2017-05-21T06:57:54.112Z,1027.6
2017-05-21T06:58:56.961Z,1027.5
2017-05-21T06:59:59.932Z,1027.6
2017-05-21T07:01:02.282Z,1027.5
2017-05-21T07:02:05.129Z,1027.6
2017-05-21T07:03:08.343Z,1027.6
2017-05-21T07:04:11.195Z,1027.6
2017-05-21T07:05:14.289Z,1027.6
2017-05-21T07:06:16.506Z,1027.6
2017-05-21T07:07:19.357Z,1027.6
2017-05-21T07:08:22.632Z,1027.6
2017-05-21T07:09:25.483Z,1027.6
2017-05-21T07:10:28.366Z,1027.7
2017-05-21T07:11:31.215Z,1027.6
2017-05-21T07:12:33.925Z,1027.6
2017-05-21T07:13:36.777Z,1027.7
2017-05-21T07:14:39.628Z,1027.7
2017-05-21T07:15:42.786Z,1027.7
2017-05-21T07:16:45.503Z,1027.7
2017-05-21T07:17:48.214Z,1027.6
2017-05-21T07:19:53.836Z,1027.7
2017-05-21T07:20:56.810Z,1027.6
2017-05-21T07:21:59.660Z,1027.7
2017-05-21T07:24:05.285Z,1027.7
2017-05-21T07:25:08.133Z,1027.7
2017-05-21T07:26:11.233Z,1027.7
2017-05-21T07:27:13.947Z,1027.7
2017-05-21T07:28:16.792Z,1027.7
2017-05-21T07:29:19.647Z,1027.7
2017-05-21T07:30:22.499Z,1027.7
2017-05-21T07:31:25.594Z,1027.8
2017-05-21T07:32:28.306Z,1027.7
2017-05-21T07:33:31.016Z,1027.7
2017-05-21T07:34:34.235Z,1027.7
2017-05-21T07:35:37.086Z,1027.8
2017-05-21T07:36:40.188Z,1027.8
2017-05-21T07:37:42.910Z,1027.8
2017-05-21T07:38:45.625Z,1027.8
2017-05-21T07:39:48.335Z,1027.8
2017-05-21T07:40:51.180Z,1027.8
2017-05-21T07:41:54.779Z,1027.8
2017-05-21T07:42:57.119Z,1027.8
2017-05-21T07:43:59.970Z,1027.8
2017-05-21T07:45:02.696Z,1027.8
2017-05-21T07:46:05.920Z,1027.7
2017-05-21T07:47:09.019Z,1027.8
2017-05-21T07:48:11.361Z,1027.7
2017-05-21T07:49:14.577Z,1027.8
2017-05-21T07:50:17.425Z,1027.8
2017-05-21T07:51:20.135Z,1027.8
2017-05-21T07:52:23.464Z,1027.8
2017-05-21T07:53:25.811Z,1027.8
2017-05-21T07:54:28.658Z,1027.9
2017-05-21T07:55:31.505Z,1027.7
2017-05-21T07:56:34.357Z,1027.8
2017-05-21T07:57:37.881Z,1027.9
2017-05-21T07:58:40.229Z,1027.9
2017-05-21T07:59:42.938Z,1027.9
2017-05-21T08:00:45.785Z,1027.8
2017-05-21T08:01:49.000Z,1027.8
2017-05-21T08:02:52.101Z,1027.8
2017-05-21T08:03:54.812Z,1027.9
2017-05-21T08:04:57.394Z,1027.8
2017-05-21T08:06:00.104Z,1027.7
2017-05-21T08:07:02.947Z,1027.8
2017-05-21T08:08:06.277Z,1027.8
2017-05-21T08:10:11.901Z,1027.8
2017-05-21T08:11:14.748Z,1027.8
2017-05-21T08:12:17.595Z,1027.8
2017-05-21T08:13:20.691Z,1027.9
2017-05-21T08:14:23.032Z,1027.8
2017-05-21T08:15:26.251Z,1027.9
2017-05-21T08:16:28.964Z,1027.8
2017-05-21T08:17:31.676Z,1027.8
2017-05-21T08:18:34.782Z,1027.8
2017-05-21T08:19:37.530Z,1027.9
2017-05-21T08:20:40.246Z,1027.9
2017-05-21T08:21:43.098Z,1027.9
2017-05-21T08:22:46.177Z,1027.9
2017-05-21T08:23:49.276Z,1027.9
2017-05-21T08:24:52.120Z,1028
2017-05-21T08:25:54.967Z,1028
2017-05-21T08:26:57.678Z,1027.9
2017-05-21T08:28:00.528Z,1027.9
2017-05-21T08:29:03.633Z,1027.9
2017-05-21T08:30:06.483Z,1027.9
2017-05-21T08:31:09.335Z,1027.8
2017-05-21T08:32:12.054Z,1027.9
2017-05-21T08:33:15.271Z,1027.9
2017-05-21T08:34:18.428Z,1027.9
2017-05-21T08:35:21.006Z,1027.9
2017-05-21T08:36:23.849Z,1027.9
2017-05-21T08:37:26.697Z,1027.9
2017-05-21T08:38:29.411Z,1027.8
2017-05-21T08:39:32.799Z,1027.9
2017-05-21T08:40:35.384Z,1027.9
2017-05-21T08:41:38.099Z,1027.8
2017-05-21T08:42:40.944Z,1027.9
2017-05-21T08:43:43.799Z,1027.9
2017-05-21T08:44:46.944Z,1027.9
2017-05-21T08:45:49.663Z,1027.9
2017-05-21T08:46:52.511Z,1027.9
2017-05-21T08:47:55.723Z,1027.9
2017-05-21T08:48:58.298Z,1027.9
2017-05-21T08:50:01.768Z,1027.8
2017-05-21T08:51:04.117Z,1027.8
2017-05-21T08:52:07.028Z,1027.8
2017-05-21T08:53:09.882Z,1027.8
2017-05-21T08:54:12.729Z,1027.8
2017-05-21T08:56:18.737Z,1027.8
2017-05-21T08:57:21.648Z,1027.8
2017-05-21T08:58:24.497Z,1027.8
2017-05-21T08:59:27.584Z,1027.8
2017-05-21T09:00:30.439Z,1027.8
2017-05-21T09:01:33.537Z,1027.9
2017-05-21T09:02:35.879Z,1027.8
2017-05-21T09:03:38.719Z,1027.8
2017-05-21T09:04:41.933Z,1027.9
2017-05-21T09:05:44.644Z,1027.8
2017-05-21T09:06:47.795Z,1027.8
2017-05-21T09:07:50.508Z,1027.9
2017-05-21T09:08:53.227Z,1027.9
2017-05-21T09:09:56.305Z,1027.9
2017-05-21T09:10:59.388Z,1027.9
2017-05-21T09:12:02.403Z,1027.9
2017-05-21T09:13:04.747Z,1027.8
2017-05-21T09:14:07.966Z,1027.8
2017-05-21T09:15:10.681Z,1027.9
2017-05-21T09:16:13.531Z,1027.9
2017-05-21T09:17:16.495Z,1027.9
2017-05-21T09:18:19.345Z,1027.9
2017-05-21T09:19:22.067Z,1027.9
2017-05-21T09:20:24.913Z,1027.9
2017-05-21T09:21:27.995Z,1027.8
2017-05-21T09:22:31.096Z,1027.9
2017-05-21T09:23:33.942Z,1027.9
2017-05-21T09:24:36.649Z,1027.9
2017-05-21T09:25:39.362Z,1027.9
2017-05-21T09:26:42.580Z,1027.9
2017-05-21T09:27:45.543Z,1027.9
2017-05-21T09:28:47.893Z,1027.9
2017-05-21T09:29:51.111Z,1027.9
2017-05-21T09:30:53.958Z,1027.9
2017-05-21T09:31:56.800Z,1027.9
2017-05-21T09:32:59.814Z,1027.9
2017-05-21T09:34:02.406Z,1027.9
2017-05-21T09:35:05.493Z,1027.9
2017-05-21T09:36:08.338Z,1027.9
2017-05-21T09:37:11.053Z,1027.9
2017-05-21T09:38:14.152Z,1027.8
2017-05-21T09:39:17.005Z,1027.9
2017-05-21T09:40:19.856Z,1027.9
2017-05-21T09:41:22.703Z,1027.9
2017-05-21T09:42:25.551Z,1028
2017-05-21T09:44:31.801Z,1028
2017-05-21T09:45:34.146Z,1028
2017-05-21T09:46:37.239Z,1028
2017-05-21T09:47:40.080Z,1027.9
2017-05-21T09:48:42.931Z,1027.9
2017-05-21T09:49:45.909Z,1027.9
2017-05-21T09:50:48.623Z,1027.9
2017-05-21T09:51:51.337Z,1028
2017-05-21T09:53:57.101Z,1027.9
2017-05-21T09:55:00.703Z,1027.9
2017-05-21T09:57:05.824Z,1027.9
2017-05-21T09:58:09.038Z,1027.9
2017-05-21T09:59:11.881Z,1027.9
2017-05-21T10:01:17.894Z,1027.9
2017-05-21T10:02:20.609Z,1027.8
2017-05-21T10:03:23.453Z,1027.8
2017-05-21T10:04:26.309Z,1027.8
2017-05-21T10:05:28.895Z,1027.8
2017-05-21T10:06:32.366Z,1027.8
2017-05-21T10:07:34.706Z,1027.8
2017-05-21T10:08:37.427Z,1027.8
2017-05-21T10:09:40.273Z,1027.8
2017-05-21T10:10:43.352Z,1027.8
2017-05-21T10:11:46.451Z,1027.8
2017-05-21T10:12:49.159Z,1027.7
2017-05-21T10:14:54.924Z,1027.8
2017-05-21T10:15:57.634Z,1027.7
2017-05-21T10:17:00.734Z,1027.7
2017-05-21T10:18:03.580Z,1027.7
2017-05-21T10:19:06.434Z,1027.7
2017-05-21T10:20:09.146Z,1027.7
2017-05-21T10:21:11.997Z,1027.7
2017-05-21T10:22:15.101Z,1027.7
2017-05-21T10:23:17.950Z,1027.7
2017-05-21T10:24:20.798Z,1027.7
2017-05-21T10:25:23.648Z,1027.7
2017-05-21T10:26:26.361Z,1027.7
2017-05-21T10:27:29.826Z,1027.7
2017-05-21T10:28:32.171Z,1027.7
2017-05-21T10:29:35.265Z,1027.7
2017-05-21T10:31:41.035Z,1027.7
2017-05-21T10:32:44.132Z,1027.6
2017-05-21T10:33:46.981Z,1027.6
2017-05-21T10:34:49.829Z,1027.6
2017-05-21T10:35:52.544Z,1027.6
2017-05-21T10:36:55.626Z,1027.6
2017-05-21T10:37:58.784Z,1027.6
2017-05-21T10:39:01.132Z,1027.6
2017-05-21T10:40:03.847Z,1027.6
2017-05-21T10:41:06.698Z,1027.6
2017-05-21T10:42:09.916Z,1027.6
2017-05-21T10:43:13.016Z,1027.6
2017-05-21T10:44:15.731Z,1027.7
2017-05-21T10:45:18.518Z,1027.6
2017-05-21T10:46:21.363Z,1027.6
2017-05-21T10:47:24.211Z,1027.6
2017-05-21T10:48:27.313Z,1027.6
2017-05-21T10:49:30.026Z,1027.6
2017-05-21T10:50:32.884Z,1027.6
2017-05-21T10:51:35.602Z,1027.6
2017-05-21T10:52:38.319Z,1027.6
2017-05-21T10:53:41.699Z,1027.6
2017-05-21T10:54:44.413Z,1027.5
2017-05-21T10:55:47.128Z,1027.6
2017-05-21T10:56:49.843Z,1027.6
2017-05-21T10:57:53.063Z,1027.6
2017-05-21T10:58:56.216Z,1027.6
2017-05-21T10:59:58.931Z,1027.6
2017-05-21T11:01:01.778Z,1027.6
2017-05-21T11:02:04.488Z,1027.6
2017-05-21T11:03:07.336Z,1027.6
2017-05-21T11:04:10.436Z,1027.5
2017-05-21T11:05:13.148Z,1027.5
2017-05-21T11:06:15.996Z,1027.4
2017-05-21T11:07:18.847Z,1027.5
2017-05-21T11:09:24.590Z,1027.5
2017-05-21T11:10:27.672Z,1027.4
2017-05-21T11:11:30.524Z,1027.4
2017-05-21T11:12:33.368Z,1027.4
2017-05-21T11:13:35.946Z,1027.3
2017-05-21T11:14:39.415Z,1027.3
2017-05-21T11:15:41.626Z,1027.3
2017-05-21T11:16:44.842Z,1027.2
2017-05-21T11:17:47.692Z,1027.2
2017-05-21T11:18:50.542Z,1027.3
2017-05-21T11:19:53.743Z,1027.2
2017-05-21T11:20:56.093Z,1027.2
2017-05-21T11:21:58.940Z,1027.3
2017-05-21T11:23:02.286Z,1027.3
2017-05-21T11:24:04.998Z,1027.2
2017-05-21T11:25:08.093Z,1027.2
2017-05-21T11:26:10.938Z,1027.2
2017-05-21T11:27:13.660Z,1027.2
2017-05-21T11:28:16.509Z,1027.2
2017-05-21T11:29:19.355Z,1027.2
2017-05-21T11:30:22.317Z,1027.2
2017-05-21T11:31:25.028Z,1027.2
2017-05-21T11:32:27.876Z,1027.2
2017-05-21T11:33:31.146Z,1027.2
2017-05-21T11:34:33.722Z,1027.2
2017-05-21T11:35:37.239Z,1027.2
2017-05-21T11:36:39.576Z,1027.2
2017-05-21T11:37:42.287Z,1027.2
2017-05-21T11:38:45.504Z,1027.1
2017-05-21T11:39:48.223Z,1027.1
2017-05-21T11:40:51.241Z,1027.1
2017-05-21T11:41:54.084Z,1027.1
2017-05-21T11:42:56.932Z,1027.1
2017-05-21T11:44:00.022Z,1027.1
2017-05-21T11:45:02.733Z,1027.1
2017-05-21T11:46:05.564Z,1027.1
2017-05-21T11:47:08.275Z,1027.1
2017-05-21T11:48:11.117Z,1027.1
2017-05-21T11:49:14.196Z,1027.1
2017-05-21T11:50:17.047Z,1027.2
2017-05-21T11:51:20.064Z,1027.1
2017-05-21T11:52:22.912Z,1027.1
2017-05-21T11:53:25.758Z,1027.1
2017-05-21T11:54:28.612Z,1027.1
2017-05-21T11:55:31.329Z,1027.1
2017-05-21T11:56:34.428Z,1027.1
2017-05-21T11:57:37.210Z,1027.1
2017-05-21T11:58:40.063Z,1027.1
2017-05-21T11:59:42.813Z,1027.1
2017-05-21T12:00:46.172Z,1027
2017-05-21T12:02:52.182Z,1027.1
2017-05-21T12:03:54.525Z,1027.1
2017-05-21T12:04:57.428Z,1027
2017-05-21T12:06:00.143Z,1027
2017-05-21T12:07:03.361Z,1027
2017-05-21T12:08:06.379Z,1027
2017-05-21T12:09:09.229Z,1027.1
2017-05-21T12:10:11.803Z,1027
2017-05-21T12:11:14.647Z,1027.1
2017-05-21T12:12:17.554Z,1027
2017-05-21T12:13:21.025Z,1027
2017-05-21T12:14:23.369Z,1027
2017-05-21T12:15:26.220Z,1027
2017-05-21T12:16:29.437Z,1027
2017-05-21T12:17:32.151Z,1027
2017-05-21T12:18:35.251Z,1027
2017-05-21T12:19:37.967Z,1027
2017-05-21T12:20:40.679Z,1027
2017-05-21T12:21:43.900Z,1027
2017-05-21T12:22:46.620Z,1027
2017-05-21T12:23:49.769Z,1027
2017-05-21T12:24:52.479Z,1026.9
2017-05-21T12:25:55.327Z,1027
2017-05-21T12:26:58.175Z,1026.9
2017-05-21T12:28:01.026Z,1027
2017-05-21T12:29:04.036Z,1026.9
2017-05-21T12:30:06.883Z,1026.9
2017-05-21T12:31:09.732Z,1026.9
2017-05-21T12:32:12.446Z,1026.9
2017-05-21T12:33:15.293Z,1026.9
2017-05-21T12:34:18.393Z,1026.9
2017-05-21T12:35:21.109Z,1026.9
2017-05-21T12:36:23.961Z,1026.9
2017-05-21T12:37:26.817Z,1026.9
2017-05-21T12:39:33.250Z,1026.9
2017-05-21T12:40:35.459Z,1026.9
2017-05-21T12:41:38.536Z,1027
2017-05-21T12:42:41.248Z,1026.9
2017-05-21T12:43:44.470Z,1027
2017-05-21T12:44:47.437Z,1026.9
2017-05-21T12:45:50.288Z,1026.9
2017-05-21T12:46:53.004Z,1026.9
2017-05-21T12:47:56.086Z,1026.9
2017-05-21T12:48:58.945Z,1026.9
2017-05-21T12:50:01.774Z,1026.9
2017-05-21T12:51:04.496Z,1026.9
2017-05-21T12:52:07.340Z,1026.9
2017-05-21T12:53:10.051Z,1026.9
2017-05-21T12:54:13.263Z,1026.9
2017-05-21T12:55:16.364Z,1026.9
2017-05-21T12:56:18.706Z,1026.9
2017-05-21T12:57:22.061Z,1026.9
2017-05-21T12:58:24.909Z,1026.9
2017-05-21T12:59:27.760Z,1026.8
2017-05-21T13:00:30.864Z,1026.8
2017-05-21T13:01:33.206Z,1026.8
2017-05-21T13:02:36.053Z,1026.8
2017-05-21T13:03:39.272Z,1026.8
2017-05-21T13:04:41.982Z,1026.8
2017-05-21T13:05:45.086Z,1026.7
2017-05-21T13:06:47.801Z,1026.8
2017-05-21T13:07:50.887Z,1026.8
2017-05-21T13:08:53.603Z,1026.7
2017-05-21T13:09:56.454Z,1026.8
2017-05-21T13:10:59.423Z,1026.8
2017-05-21T13:12:02.137Z,1026.8
2017-05-21T13:13:04.857Z,1026.7
2017-05-21T13:14:08.216Z,1026.7
2017-05-21T13:15:11.063Z,1026.8
2017-05-21T13:16:14.030Z,1026.8
2017-05-21T13:17:16.742Z,1026.8
2017-05-21T13:18:19.592Z,1026.7
2017-05-21T13:19:22.472Z,1026.7
2017-05-21T13:20:25.321Z,1026.7
2017-05-21T13:21:28.420Z,1026.7
2017-05-21T13:22:30.867Z,1026.7
2017-05-21T13:23:33.721Z,1026.7
2017-05-21T13:24:36.570Z,1026.7
2017-05-21T13:25:39.476Z,1026.7
2017-05-21T13:26:42.948Z,1026.7
2017-05-21T13:27:45.157Z,1026.6
2017-05-21T13:28:48.379Z,1026.7
2017-05-21T13:29:51.090Z,1026.6